Time;durP1;ratioP1;P1;durP2;ratioP2;P2;SDS_P1;SDS_P2;PMS_P1;PMS_P2;Temp;Humidity;BMP_temperature;BMP_pressure;BME280_temperature;BME280_humidity;BME280_pressure;Samples;Min_cycle;Max_cycle;Signal;HPM_P1;HPM_P2
2022/03/15 00:00:47;;;;;;;21.45;11.57;;;;;;;;;;5013969;28;97392;-75
2022/03/15 00:03:13;;;;;;;20.63;11.30;;;;;;;;;;5033387;28;95428;-75
2022/03/15 00:05:40;;;;;;;29.40;12.60;;;;;;;;;;5037098;27;97070;-75
2022/03/15 00:08:07;;;;;;;31.77;12.43;;;;;;;;;;5033743;28;95258;-75
2022/03/15 00:10:33;;;;;;;28.27;12.10;;;;;;;;;;5033137;27;97268;-75
2022/03/15 00:12:59;;;;;;;28.92;11.75;;;;;;;;;;5031878;27;97511;-75
2022/03/15 00:15:27;;;;;;;25.38;12.48;;;;;;;;;;5033377;27;95459;-75
2022/03/15 00:17:53;;;;;;;19.13;10.75;;;;;;;;;;5033532;28;96849;-75
2022/03/15 00:20:22;;;;;;;21.85;10.93;;;;;;;;;;5014692;28;97300;-75
2022/03/15 00:22:49;;;;;;;23.30;10.77;;;;;;;;;;5028647;27;95353;-75
2022/03/15 00:25:17;;;;;;;22.90;10.50;;;;;;;;;;5033074;28;96855;-74
2022/03/15 00:27:44;;;;;;;23.67;10.73;;;;;;;;;;5035970;28;97677;-75
2022/03/15 00:30:11;;;;;;;23.33;10.65;;;;;;;;;;5032830;27;96709;-74
2022/03/15 00:32:37;;;;;;;24.83;10.77;;;;;;;;;;5031818;27;97601;-74
2022/03/15 00:35:16;;;;;;;25.83;11.38;;;;;;;;;;5015418;28;95465;-73
2022/03/15 00:37:43;;;;;;;20.73;11.15;;;;;;;;;;5032534;28;97179;-73
2022/03/15 00:40:10;;;;;;;22.83;10.57;;;;;;;;;;5033404;27;97620;-74
2022/03/15 00:42:36;;;;;;;25.88;11.35;;;;;;;;;;5027262;28;95434;-73
2022/03/15 00:45:05;;;;;;;32.80;12.88;;;;;;;;;;5012628;28;97072;-73
2022/03/15 00:47:31;;;;;;;22.15;10.98;;;;;;;;;;5016310;28;97552;-73
2022/03/15 00:49:58;;;;;;;26.60;11.55;;;;;;;;;;5012765;28;96806;-74
2022/03/15 00:52:25;;;;;;;27.80;11.13;;;;;;;;;;5014141;28;97382;-74
2022/03/15 00:54:51;;;;;;;26.42;10.30;;;;;;;;;;5033106;27;95392;-74
2022/03/15 00:57:18;;;;;;;22.08;11.18;;;;;;;;;;5032416;28;96826;-74
2022/03/15 00:59:44;;;;;;;27.00;10.63;;;;;;;;;;5032767;28;96513;-73
2022/03/15 01:02:11;;;;;;;22.60;10.50;;;;;;;;;;5019454;27;95251;-74
2022/03/15 01:04:37;;;;;;;19.80;10.75;;;;;;;;;;4995387;28;96892;-74
2022/03/15 01:07:04;;;;;;;27.10;11.30;;;;;;;;;;5012448;28;97674;-74
2022/03/15 01:09:30;;;;;;;20.13;11.35;;;;;;;;;;5016285;28;95513;-73
2022/03/15 01:11:59;;;;;;;29.50;12.25;;;;;;;;;;5023669;28;97603;-74
2022/03/15 01:14:27;;;;;;;23.30;10.55;;;;;;;;;;5032655;27;95581;-73
2022/03/15 01:16:55;;;;;;;20.67;10.63;;;;;;;;;;5032345;28;96856;-73
2022/03/15 01:19:22;;;;;;;28.55;10.65;;;;;;;;;;5012390;28;97493;-73
2022/03/15 01:21:53;;;;;;;22.88;10.73;;;;;;;;;;5022570;28;95477;-73
2022/03/15 01:24:19;;;;;;;24.98;10.90;;;;;;;;;;5032679;27;96877;-74
2022/03/15 01:26:46;;;;;;;29.70;10.88;;;;;;;;;;5031429;27;97348;-74
2022/03/15 01:29:12;;;;;;;28.88;10.20;;;;;;;;;;5031886;28;95347;-73
2022/03/15 01:31:39;;;;;;;28.65;10.75;;;;;;;;;;5030232;28;96962;-73
2022/03/15 01:34:06;;;;;;;21.98;11.38;;;;;;;;;;5012134;28;95477;-73
2022/03/15 01:36:32;;;;;;;25.92;11.30;;;;;;;;;;5012830;28;96721;-74
2022/03/15 01:38:59;;;;;;;20.50;10.43;;;;;;;;;;5024518;28;97616;-76
2022/03/15 01:41:26;;;;;;;26.27;10.77;;;;;;;;;;5028619;27;95407;-74
2022/03/15 01:43:54;;;;;;;19.92;9.90;;;;;;;;;;5012683;28;97598;-73
2022/03/15 01:46:20;;;;;;;22.45;10.25;;;;;;;;;;5012305;28;97383;-74
2022/03/15 01:48:46;;;;;;;26.38;10.18;;;;;;;;;;5011974;28;95302;-73
2022/03/15 01:51:13;;;;;;;23.60;10.73;;;;;;;;;;4994416;28;96446;-73
2022/03/15 01:53:40;;;;;;;25.42;10.18;;;;;;;;;;5035594;27;97334;-74
2022/03/15 01:56:06;;;;;;;21.83;10.93;;;;;;;;;;5031699;28;97158;-73
2022/03/15 01:58:32;;;;;;;23.23;9.95;;;;;;;;;;5024592;28;96760;-73
2022/03/15 02:00:59;;;;;;;23.90;11.02;;;;;;;;;;5031878;27;95408;-73
2022/03/15 02:03:26;;;;;;;21.88;12.02;;;;;;;;;;5031884;27;95676;-74
2022/03/15 02:05:53;;;;;;;23.80;11.40;;;;;;;;;;5031918;28;96786;-76
2022/03/15 02:08:19;;;;;;;24.67;11.18;;;;;;;;;;5020107;28;95302;-74
2022/03/15 02:10:45;;;;;;;25.70;11.35;;;;;;;;;;5029815;27;96743;-74
2022/03/15 02:13:11;;;;;;;25.98;11.65;;;;;;;;;;5031472;27;97582;-74
2022/03/15 02:15:38;;;;;;;26.95;11.27;;;;;;;;;;5033510;27;95959;-73
2022/03/15 02:18:05;;;;;;;24.55;11.05;;;;;;;;;;5031450;28;97740;-74
2022/03/15 02:20:31;;;;;;;20.88;10.77;;;;;;;;;;5031361;27;95450;-74
2022/03/15 02:22:57;;;;;;;27.77;10.82;;;;;;;;;;5007988;28;97180;-74
2022/03/15 02:25:24;;;;;;;27.20;11.23;;;;;;;;;;5011778;28;97353;-75
2022/03/15 02:27:52;;;;;;;20.08;10.25;;;;;;;;;;5011949;28;95429;-74
2022/03/15 02:30:21;;;;;;;29.13;10.52;;;;;;;;;;5011433;28;97172;-74
2022/03/15 02:32:48;;;;;;;18.63;10.20;;;;;;;;;;5014870;28;97723;-74
2022/03/15 02:35:15;;;;;;;25.30;10.68;;;;;;;;;;5031490;27;95305;-74
2022/03/15 02:37:42;;;;;;;25.38;11.23;;;;;;;;;;5035726;27;96750;-74
2022/03/15 02:40:09;;;;;;;20.70;10.02;;;;;;;;;;5024687;28;95150;-74
2022/03/15 02:42:35;;;;;;;18.27;10.07;;;;;;;;;;5035429;27;96917;-74
2022/03/15 02:45:02;;;;;;;24.38;10.75;;;;;;;;;;5034397;27;97876;-73
2022/03/15 02:47:28;;;;;;;25.50;11.10;;;;;;;;;;5035709;28;95229;-74
2022/03/15 02:49:55;;;;;;;27.83;11.52;;;;;;;;;;5033743;28;96761;-74
2022/03/15 02:52:21;;;;;;;23.38;9.80;;;;;;;;;;4996779;28;97222;-73
2022/03/15 02:54:48;;;;;;;24.90;10.85;;;;;;;;;;5020727;28;95437;-73
2022/03/15 02:57:14;;;;;;;22.98;10.98;;;;;;;;;;5038201;28;96725;-73
2022/03/15 02:59:42;;;;;;;21.95;11.98;;;;;;;;;;5034030;27;95674;-73
2022/03/15 03:02:09;;;;;;;27.58;11.00;;;;;;;;;;5015641;28;97132;-73
2022/03/15 03:04:35;;;;;;;23.92;10.23;;;;;;;;;;5014807;28;97567;-73
2022/03/15 03:07:02;;;;;;;23.90;11.13;;;;;;;;;;5014203;28;95122;-73
2022/03/15 03:09:29;;;;;;;18.35;9.65;;;;;;;;;;5015086;28;97091;-75
2022/03/15 03:11:57;;;;;;;20.45;10.48;;;;;;;;;;5021991;28;97465;-74
2022/03/15 03:14:26;;;;;;;21.83;10.20;;;;;;;;;;5014506;28;95777;-76
2022/03/15 03:16:53;;;;;;;22.17;9.52;;;;;;;;;;5014429;28;97386;-75
2022/03/15 03:19:19;;;;;;;25.05;10.77;;;;;;;;;;4999561;28;97369;-75
2022/03/15 03:21:48;;;;;;;24.50;11.35;;;;;;;;;;5022166;28;97131;-74
2022/03/15 03:24:21;;;;;;;23.75;10.55;;;;;;;;;;5014092;28;97374;-74
2022/03/15 03:26:47;;;;;;;16.75;8.98;;;;;;;;;;5014412;28;95009;-74
2022/03/15 03:29:15;;;;;;;21.98;10.13;;;;;;;;;;5030593;28;97148;-73
2022/03/15 03:31:43;;;;;;;24.30;9.73;;;;;;;;;;5014333;28;97395;-74
2022/03/15 03:34:11;;;;;;;20.08;9.30;;;;;;;;;;5014169;28;95434;-74
2022/03/15 03:36:38;;;;;;;18.75;9.57;;;;;;;;;;5014946;28;96997;-74
2022/03/15 03:39:22;;;;;;;18.13;9.35;;;;;;;;;;5031494;28;97425;-74
2022/03/15 03:41:49;;;;;;;14.38;9.05;;;;;;;;;;5019811;28;95214;-74
2022/03/15 03:44:16;;;;;;;23.75;9.70;;;;;;;;;;5014037;28;97726;-73
2022/03/15 03:46:42;;;;;;;24.33;10.02;;;;;;;;;;5014948;28;95276;-74
2022/03/15 03:49:09;;;;;;;16.77;8.65;;;;;;;;;;5013982;28;96802;-75
2022/03/15 03:51:36;;;;;;;22.15;9.60;;;;;;;;;;5014536;28;97670;-74
2022/03/15 03:54:03;;;;;;;18.08;9.95;;;;;;;;;;5013943;28;95725;-73
2022/03/15 03:56:29;;;;;;;17.60;8.95;;;;;;;;;;5014186;28;96842;-75
2022/03/15 03:58:56;;;;;;;26.73;9.40;;;;;;;;;;5015289;28;97398;-74
2022/03/15 04:01:22;;;;;;;23.13;10.20;;;;;;;;;;5014012;28;95335;-74
2022/03/15 04:03:49;;;;;;;19.05;10.00;;;;;;;;;;5017124;28;97283;-75
2022/03/15 04:06:15;;;;;;;19.17;10.30;;;;;;;;;;5013604;28;95335;-75
2022/03/15 04:08:43;;;;;;;23.90;10.32;;;;;;;;;;5023817;28;97154;-75
2022/03/15 04:11:10;;;;;;;19.38;9.88;;;;;;;;;;4999359;28;97693;-74
2022/03/15 04:13:40;;;;;;;21.60;9.45;;;;;;;;;;4996402;28;95421;-75
2022/03/15 04:16:07;;;;;;;19.98;10.88;;;;;;;;;;5015437;28;97270;-74
2022/03/15 04:18:33;;;;;;;19.92;9.52;;;;;;;;;;5032942;28;97355;-74
2022/03/15 04:21:00;;;;;;;19.38;10.13;;;;;;;;;;5028948;28;95423;-74
2022/03/15 04:23:26;;;;;;;20.95;9.85;;;;;;;;;;5033584;28;96865;-74
2022/03/15 04:25:52;;;;;;;22.63;10.18;;;;;;;;;;5037205;27;97506;-74
2022/03/15 04:28:19;;;;;;;20.92;9.82;;;;;;;;;;5018931;28;97492;-74
2022/03/15 04:30:45;;;;;;;23.30;10.73;;;;;;;;;;5013342;28;97445;-75
2022/03/15 04:33:12;;;;;;;23.08;10.35;;;;;;;;;;5013834;28;95412;-75
2022/03/15 04:35:38;;;;;;;23.80;10.48;;;;;;;;;;5013537;28;96901;-74
2022/03/15 04:38:04;;;;;;;24.30;9.98;;;;;;;;;;5025146;28;97691;-73
2022/03/15 04:40:31;;;;;;;20.95;9.50;;;;;;;;;;5033719;27;95341;-73
2022/03/15 04:42:59;;;;;;;27.65;11.38;;;;;;;;;;5003603;28;96806;-73
2022/03/15 04:45:26;;;;;;;20.25;10.30;;;;;;;;;;5012749;28;97667;-73
2022/03/15 04:47:52;;;;;;;23.15;9.18;;;;;;;;;;5017811;28;95242;-72
2022/03/15 04:50:19;;;;;;;21.05;10.55;;;;;;;;;;5013111;28;97372;-73
2022/03/15 04:52:45;;;;;;;23.98;11.18;;;;;;;;;;5018534;28;95405;-73
2022/03/15 04:55:12;;;;;;;25.33;10.75;;;;;;;;;;5033300;28;96827;-73
2022/03/15 04:57:38;;;;;;;23.23;10.43;;;;;;;;;;5031016;28;97718;-73
2022/03/15 05:00:08;;;;;;;18.85;10.07;;;;;;;;;;5031985;27;95393;-73
2022/03/15 05:02:35;;;;;;;16.90;10.10;;;;;;;;;;5032632;28;97035;-73
2022/03/15 05:05:02;;;;;;;36.92;12.25;;;;;;;;;;5032073;28;97681;-73
2022/03/15 05:07:29;;;;;;;27.25;10.90;;;;;;;;;;5019375;28;95411;-73
2022/03/15 05:12:40;;;;;;;20.73;10.80;;;;;;;;;;5012825;28;94947;-73
2022/03/15 05:15:07;;;;;;;27.70;11.27;;;;;;;;;;4994844;28;96810;-71
2022/03/15 05:17:36;;;;;;;24.27;10.70;;;;;;;;;;4990713;28;97389;-73
2022/03/15 05:20:09;;;;;;;22.80;10.93;;;;;;;;;;4991880;28;95378;-73
2022/03/15 05:22:35;;;;;;;23.05;11.13;;;;;;;;;;4992294;28;96737;-74
2022/03/15 05:25:02;;;;;;;22.00;11.73;;;;;;;;;;4972572;28;97801;-74
2022/03/15 05:27:32;;;;;;;31.77;13.27;;;;;;;;;;4973683;28;95305;-74
2022/03/15 05:29:59;;;;;;;24.27;14.30;;;;;;;;;;4975669;28;97190;-75
2022/03/15 05:32:26;;;;;;;27.17;12.45;;;;;;;;;;4972972;28;95246;-75
2022/03/15 17:58:52;;;;;;;20.27;9.95;;;;;;;;;;5056387;27;1295178;-74
2022/03/15 18:01:19;;;;;;;15.82;9.27;;;;;;;;;;5081938;27;97376;-74
2022/03/15 18:03:46;;;;;;;20.80;10.23;;;;;;;;;;5084498;27;95502;-74
2022/03/15 18:06:14;;;;;;;18.15;9.60;;;;;;;;;;5086380;27;98082;-74
2022/03/15 18:08:41;;;;;;;21.17;10.18;;;;;;;;;;5088786;27;97329;-74
2022/03/15 18:11:09;;;;;;;25.50;10.40;;;;;;;;;;5088748;27;95235;-74
2022/03/15 18:13:36;;;;;;;27.50;11.05;;;;;;;;;;5086495;27;96644;-74
2022/03/15 18:16:04;;;;;;;28.73;10.95;;;;;;;;;;5087370;27;97635;-73
2022/03/15 18:18:30;;;;;;;22.50;11.02;;;;;;;;;;5091069;27;95359;-73
2022/03/15 18:20:59;;;;;;;20.92;10.70;;;;;;;;;;5088096;27;96780;-73
2022/03/15 18:23:28;;;;;;;23.17;11.65;;;;;;;;;;5088257;27;95549;-73
2022/03/15 18:25:55;;;;;;;21.73;12.50;;;;;;;;;;5087622;27;96771;-73
2022/03/15 18:28:22;;;;;;;27.35;12.15;;;;;;;;;;5086665;27;97403;-73
2022/03/15 18:30:50;;;;;;;24.02;12.15;;;;;;;;;;5088938;27;96346;-73
2022/03/15 18:33:21;;;;;;;20.67;12.50;;;;;;;;;;5087645;27;96915;-73
2022/03/15 18:35:49;;;;;;;26.67;13.38;;;;;;;;;;5071191;27;97391;-73
2022/03/15 18:38:17;;;;;;;26.73;12.77;;;;;;;;;;5076404;27;95263;-74
2022/03/15 18:40:44;;;;;;;18.15;11.25;;;;;;;;;;5090916;27;97381;-73
2022/03/15 18:43:13;;;;;;;18.27;12.05;;;;;;;;;;5088211;27;95295;-73
2022/03/15 18:45:41;;;;;;;22.75;11.88;;;;;;;;;;5086893;27;95716;-72
2022/03/15 18:48:08;;;;;;;21.02;12.32;;;;;;;;;;5085522;27;97356;-73
2022/03/15 18:50:37;;;;;;;20.70;11.82;;;;;;;;;;5086999;27;95392;-74
2022/03/15 18:53:04;;;;;;;33.15;12.25;;;;;;;;;;5087822;27;97216;-74
2022/03/15 18:55:30;;;;;;;18.70;11.77;;;;;;;;;;5086201;27;97446;-74
2022/03/15 18:57:57;;;;;;;28.77;12.05;;;;;;;;;;5086187;27;95303;-74
2022/03/15 19:00:26;;;;;;;33.20;11.85;;;;;;;;;;5087364;27;96914;-74
2022/03/15 19:02:53;;;;;;;23.40;13.02;;;;;;;;;;5090894;27;97329;-74
2022/03/15 19:05:20;;;;;;;22.42;10.98;;;;;;;;;;5086054;27;97122;-74
2022/03/15 19:07:50;;;;;;;22.17;11.40;;;;;;;;;;5087387;27;96269;-74
2022/03/15 19:10:27;;;;;;;16.08;10.13;;;;;;;;;;5072275;27;94959;-74
2022/03/15 19:12:57;;;;;;;21.63;10.93;;;;;;;;;;5074551;27;96896;-74
2022/03/15 19:15:28;;;;;;;40.95;12.07;;;;;;;;;;5072131;27;97634;-74
2022/03/15 19:17:56;;;;;;;22.98;11.70;;;;;;;;;;5073771;27;95340;-74
2022/03/15 19:20:22;;;;;;;28.73;12.65;;;;;;;;;;5073599;27;96749;-74
2022/03/15 19:22:50;;;;;;;26.00;12.05;;;;;;;;;;5073485;27;96120;-74
2022/03/15 19:25:17;;;;;;;22.23;12.40;;;;;;;;;;5076008;27;96343;-75
2022/03/15 19:27:44;;;;;;;22.83;12.25;;;;;;;;;;5073935;27;97358;-74
2022/03/15 19:30:11;;;;;;;31.80;12.60;;;;;;;;;;5072931;27;95307;-73
2022/03/15 19:32:41;;;;;;;30.35;13.27;;;;;;;;;;5073598;27;97086;-74
2022/03/15 19:35:11;;;;;;;25.52;13.43;;;;;;;;;;5073076;27;97917;-73
2022/03/15 19:37:38;;;;;;;19.85;12.85;;;;;;;;;;5071891;27;95225;-74
2022/03/15 19:40:07;;;;;;;17.92;12.45;;;;;;;;;;5073417;27;96629;-74
2022/03/15 19:42:36;;;;;;;22.65;12.38;;;;;;;;;;5073777;27;97234;-73
2022/03/15 19:45:03;;;;;;;22.98;13.27;;;;;;;;;;5072377;27;95331;-74
2022/03/15 19:47:30;;;;;;;24.15;13.73;;;;;;;;;;5074037;27;96916;-74
2022/03/15 19:49:57;;;;;;;22.85;13.98;;;;;;;;;;5053790;27;95433;-73
2022/03/15 19:52:24;;;;;;;26.00;15.35;;;;;;;;;;5068631;27;96792;-73
2022/03/15 19:54:51;;;;;;;30.40;18.55;;;;;;;;;;5071890;27;97415;-73
2022/03/15 19:57:25;;;;;;;27.67;17.75;;;;;;;;;;5071814;27;95243;-73
2022/03/15 19:59:51;;;;;;;32.85;17.42;;;;;;;;;;5073338;27;96662;-73
2022/03/15 20:02:19;;;;;;;31.75;16.95;;;;;;;;;;5070503;27;97516;-74
2022/03/15 20:04:46;;;;;;;30.88;17.17;;;;;;;;;;5071738;27;95336;-73
2022/03/15 20:07:18;;;;;;;29.88;17.40;;;;;;;;;;5073525;27;96712;-73
2022/03/15 20:09:50;;;;;;;34.55;17.90;;;;;;;;;;5070288;27;95964;-73
2022/03/15 20:12:23;;;;;;;28.33;17.30;;;;;;;;;;5072798;27;96767;-73
2022/03/15 20:14:52;;;;;;;27.88;16.45;;;;;;;;;;5073944;27;97311;-73
2022/03/15 20:17:18;;;;;;;29.65;16.83;;;;;;;;;;5074240;27;95288;-72
2022/03/15 20:19:47;;;;;;;27.45;17.27;;;;;;;;;;5072364;27;97182;-73
2022/03/15 20:22:16;;;;;;;28.25;16.95;;;;;;;;;;5073018;27;97414;-75
2022/03/15 20:24:42;;;;;;;36.30;18.95;;;;;;;;;;5065400;27;95480;-74
2022/03/15 20:27:09;;;;;;;35.08;20.15;;;;;;;;;;5072912;27;97363;-73
2022/03/15 20:29:37;;;;;;;41.42;27.48;;;;;;;;;;5076254;27;97361;-73
2022/03/15 20:32:04;;;;;;;37.80;24.80;;;;;;;;;;5072300;27;96776;-74
2022/03/15 20:34:30;;;;;;;34.10;22.02;;;;;;;;;;5072579;27;97666;-73
2022/03/15 20:36:57;;;;;;;26.63;18.27;;;;;;;;;;5074128;27;95241;-73
2022/03/15 20:39:25;;;;;;;27.17;17.55;;;;;;;;;;5073935;27;96721;-73
2022/03/15 20:41:52;;;;;;;29.17;20.05;;;;;;;;;;5073123;27;96243;-73
2022/03/15 20:44:18;;;;;;;30.88;17.02;;;;;;;;;;5073566;27;95845;-73
2022/03/15 20:46:46;;;;;;;30.27;15.95;;;;;;;;;;5074062;27;96816;-74
2022/03/15 20:49:12;;;;;;;25.92;15.10;;;;;;;;;;5072984;27;97238;-74
2022/03/15 20:51:42;;;;;;;29.77;15.30;;;;;;;;;;5077167;27;95506;-74
2022/03/15 20:54:15;;;;;;;22.15;14.38;;;;;;;;;;5072719;27;97205;-74
2022/03/15 20:56:41;;;;;;;33.40;14.48;;;;;;;;;;5073699;27;95414;-74
2022/03/15 20:59:09;;;;;;;27.80;14.32;;;;;;;;;;5072537;27;95984;-74
2022/03/15 21:01:39;;;;;;;26.70;13.50;;;;;;;;;;5072943;27;97509;-74
2022/03/15 21:04:10;;;;;;;26.50;14.90;;;;;;;;;;5073365;27;95168;-74
2022/03/15 21:06:39;;;;;;;24.23;14.52;;;;;;;;;;5073717;27;96739;-74
2022/03/15 21:09:07;;;;;;;27.73;15.48;;;;;;;;;;5072705;27;97152;-73
2022/03/15 21:11:36;;;;;;;23.85;14.32;;;;;;;;;;5073787;27;95248;-74
2022/03/15 21:14:03;;;;;;;22.30;14.65;;;;;;;;;;5076328;27;96683;-73
2022/03/15 21:16:30;;;;;;;24.13;14.60;;;;;;;;;;5073353;27;95216;-73
2022/03/15 21:18:58;;;;;;;22.85;14.40;;;;;;;;;;5073512;27;96732;-73
2022/03/15 21:21:24;;;;;;;36.42;16.15;;;;;;;;;;5073301;27;97333;-73
2022/03/15 21:23:52;;;;;;;29.30;15.93;;;;;;;;;;5073011;27;95432;-73
2022/03/15 21:26:20;;;;;;;29.35;17.67;;;;;;;;;;5073180;27;96617;-74
2022/03/15 21:28:47;;;;;;;35.40;18.63;;;;;;;;;;5073218;27;97520;-74
2022/03/15 21:31:14;;;;;;;27.25;18.77;;;;;;;;;;5072339;27;95447;-73
2022/03/15 21:33:43;;;;;;;28.77;17.83;;;;;;;;;;5073557;27;95622;-73
2022/03/15 21:36:09;;;;;;;24.83;15.40;;;;;;;;;;5075360;27;97310;-73
2022/03/15 21:38:36;;;;;;;24.55;15.65;;;;;;;;;;5073367;27;96772;-73
2022/03/15 21:41:03;;;;;;;31.63;16.92;;;;;;;;;;5072751;27;97343;-73
2022/03/15 21:43:30;;;;;;;27.60;15.75;;;;;;;;;;5073044;27;95489;-73
2022/03/15 21:45:56;;;;;;;26.50;17.02;;;;;;;;;;5073316;27;96901;-74
2022/03/15 21:48:26;;;;;;;30.15;16.00;;;;;;;;;;5072803;27;97292;-75
2022/03/15 21:50:53;;;;;;;25.45;16.25;;;;;;;;;;5072721;27;95413;-75
2022/03/15 21:53:21;;;;;;;22.63;15.88;;;;;;;;;;5072509;27;96850;-74
2022/03/15 21:55:52;;;;;;;25.85;14.73;;;;;;;;;;5072728;27;96240;-75
2022/03/15 21:58:19;;;;;;;23.88;15.15;;;;;;;;;;5075089;27;95397;-74
2022/03/15 22:00:46;;;;;;;26.17;16.42;;;;;;;;;;5071965;27;97646;-74
2022/03/15 22:03:12;;;;;;;28.45;15.40;;;;;;;;;;5071948;27;95436;-74
2022/03/15 22:05:39;;;;;;;31.60;15.88;;;;;;;;;;5072381;27;97039;-75
2022/03/15 22:08:05;;;;;;;36.20;19.33;;;;;;;;;;5072375;27;97415;-75
2022/03/15 22:10:32;;;;;;;39.60;19.38;;;;;;;;;;5072997;27;95278;-74
2022/03/15 22:12:59;;;;;;;34.22;18.70;;;;;;;;;;5070738;27;97133;-75
2022/03/15 22:15:25;;;;;;;36.67;19.50;;;;;;;;;;5072309;27;97061;-75
2022/03/15 22:17:55;;;;;;;40.20;20.63;;;;;;;;;;5075058;27;95224;-76
2022/03/15 22:20:23;;;;;;;30.75;19.52;;;;;;;;;;5071910;27;97833;-74
2022/03/15 22:22:50;;;;;;;38.42;22.65;;;;;;;;;;5072443;27;95312;-74
2022/03/15 22:25:17;;;;;;;40.35;20.13;;;;;;;;;;5072540;27;96696;-74
2022/03/15 22:27:43;;;;;;;39.05;21.08;;;;;;;;;;5072334;27;97457;-74
2022/03/15 23:16:42;;;;;;;29.63;18.83;;;;;;;;;;5075450;27;97319;-74
2022/03/15 23:19:09;;;;;;;32.15;18.75;;;;;;;;;;5075451;27;96564;-74
2022/03/15 23:24:20;;;;;;;31.20;19.20;;;;;;;;;;5075474;27;96461;-75
2022/03/15 23:29:32;;;;;;;28.30;18.13;;;;;;;;;;5078353;27;95191;-74
2022/03/15 23:31:58;;;;;;;28.23;16.85;;;;;;;;;;5074536;27;97254;-74
2022/03/15 23:34:25;;;;;;;27.10;16.52;;;;;;;;;;5075386;27;95325;-75
2022/03/15 23:36:52;;;;;;;32.42;20.60;;;;;;;;;;5075106;27;96995;-75
2022/03/15 23:39:18;;;;;;;24.85;16.98;;;;;;;;;;5074621;27;97494;-75
2022/03/15 23:41:44;;;;;;;27.27;16.65;;;;;;;;;;5074864;27;95261;-75
2022/03/15 23:44:11;;;;;;;25.88;17.27;;;;;;;;;;5074274;27;96894;-74
2022/03/15 23:46:37;;;;;;;27.17;16.80;;;;;;;;;;5075015;27;97342;-74
2022/03/15 23:49:03;;;;;;;27.77;18.02;;;;;;;;;;5074736;27;95314;-74
2022/03/15 23:51:30;;;;;;;26.98;15.88;;;;;;;;;;5077296;27;95680;-75
2022/03/15 23:53:56;;;;;;;27.05;18.05;;;;;;;;;;5075079;27;95281;-74
2022/03/15 23:56:22;;;;;;;25.42;18.42;;;;;;;;;;5074598;27;96800;-75
2022/03/15 23:58:49;;;;;;;25.60;17.63;;;;;;;;;;5074155;27;97318;-75
